Time;durP1;ratioP1;P1;durP2;ratioP2;P2;SDS_P1;SDS_P2;PMS_P1;PMS_P2;Temp;Humidity;BMP_temperature;BMP_pressure;BME280_temperature;BME280_humidity;BME280_pressure;Samples;Min_cycle;Max_cycle;Signal;HPM_P1;HPM_P2
2021/12/20 00:01:44;;;;;;;51.78;29.33;;;;;;;;;;4966326;28;20048;-48
2021/12/20 00:04:10;;;;;;;54.92;30.35;;;;;;;;;;4974584;28;20047;-46
2021/12/20 00:06:36;;;;;;;48.95;30.33;;;;;;;;;;4973879;28;20074;-51
2021/12/20 00:09:02;;;;;;;49.85;29.60;;;;;;;;;;4973278;28;20061;-51
2021/12/20 00:11:28;;;;;;;50.80;29.00;;;;;;;;;;4971074;28;20039;-47
2021/12/20 00:13:53;;;;;;;52.42;28.13;;;;;;;;;;4969879;28;20546;-47
2021/12/20 00:16:19;;;;;;;46.85;27.45;;;;;;;;;;4975481;28;20035;-47
2021/12/20 00:18:45;;;;;;;48.95;27.55;;;;;;;;;;4982581;28;21926;-49
2021/12/20 00:21:11;;;;;;;49.70;27.70;;;;;;;;;;5023649;28;20026;-47
2021/12/20 00:23:37;;;;;;;48.97;27.95;;;;;;;;;;5028382;28;20076;-50
2021/12/20 00:26:03;;;;;;;44.70;27.67;;;;;;;;;;5038660;28;20037;-46
2021/12/20 00:28:29;;;;;;;44.42;27.20;;;;;;;;;;5030986;28;20052;-47
2021/12/20 00:30:54;;;;;;;40.72;26.58;;;;;;;;;;5026130;28;20072;-48
2021/12/20 00:33:21;;;;;;;43.65;26.13;;;;;;;;;;5026124;28;20041;-48
2021/12/20 00:35:47;;;;;;;47.17;27.55;;;;;;;;;;5033775;28;20111;-46
2021/12/20 00:40:58;;;;;;;45.75;28.88;;;;;;;;;;5025537;28;20076;-48
2021/12/20 00:43:24;;;;;;;47.13;28.48;;;;;;;;;;5023957;28;20037;-46
2021/12/20 00:45:50;;;;;;;47.20;28.25;;;;;;;;;;5027602;28;20029;-52
2021/12/20 00:48:16;;;;;;;47.67;28.35;;;;;;;;;;5025978;28;20032;-53
2021/12/20 00:50:43;;;;;;;49.28;26.85;;;;;;;;;;5032149;28;20033;-46
2021/12/20 00:53:10;;;;;;;46.50;27.05;;;;;;;;;;5021331;28;20024;-51
2021/12/20 00:55:36;;;;;;;51.45;27.98;;;;;;;;;;5030891;28;20037;-50
2021/12/20 00:58:02;;;;;;;51.45;28.98;;;;;;;;;;5030667;28;20589;-49
2021/12/20 01:00:34;;;;;;;56.80;28.42;;;;;;;;;;5022795;28;20111;-52
2021/12/20 01:03:02;;;;;;;47.88;28.45;;;;;;;;;;5021907;28;20402;-53
2021/12/20 01:05:28;;;;;;;47.97;27.42;;;;;;;;;;5030383;28;20430;-52
2021/12/20 01:07:58;;;;;;;46.55;28.02;;;;;;;;;;5020792;28;20491;-53
2021/12/20 01:10:25;;;;;;;55.80;29.23;;;;;;;;;;5020945;28;20486;-54
2021/12/20 01:12:53;;;;;;;47.58;27.60;;;;;;;;;;5035606;28;20034;-51
2021/12/20 01:15:25;;;;;;;45.25;27.13;;;;;;;;;;5023351;28;20026;-49
2021/12/20 01:17:51;;;;;;;51.58;28.23;;;;;;;;;;5027930;28;20047;-46
2021/12/20 01:20:18;;;;;;;45.83;27.90;;;;;;;;;;5025962;28;20087;-49
2021/12/20 01:22:45;;;;;;;49.95;28.40;;;;;;;;;;5021194;28;20146;-50
2021/12/20 01:25:12;;;;;;;45.60;28.13;;;;;;;;;;5036554;28;20079;-48
2021/12/20 01:27:38;;;;;;;47.72;26.50;;;;;;;;;;5036188;28;20029;-50
2021/12/20 01:30:06;;;;;;;45.83;27.55;;;;;;;;;;5026573;28;20026;-52
2021/12/20 01:32:32;;;;;;;45.92;27.88;;;;;;;;;;5027733;28;20053;-46
2021/12/20 01:34:58;;;;;;;52.05;28.33;;;;;;;;;;5023755;28;20049;-49
2021/12/20 01:37:24;;;;;;;48.85;27.48;;;;;;;;;;5030014;28;20030;-51
2021/12/20 01:39:49;;;;;;;54.33;29.10;;;;;;;;;;5025826;28;20109;-53
2021/12/20 01:42:20;;;;;;;53.22;27.65;;;;;;;;;;5017955;28;20145;-46
2021/12/20 01:44:48;;;;;;;51.63;28.90;;;;;;;;;;5022699;28;20037;-53
2021/12/20 01:47:14;;;;;;;46.55;28.17;;;;;;;;;;5021142;28;20378;-49
2021/12/20 01:49:55;;;;;;;49.50;29.02;;;;;;;;;;5025795;28;20041;-53
2021/12/20 01:52:23;;;;;;;53.45;27.60;;;;;;;;;;5021421;28;20037;-51
2021/12/20 01:54:49;;;;;;;58.53;31.27;;;;;;;;;;5022075;28;20081;-53
2021/12/20 01:57:15;;;;;;;49.38;28.75;;;;;;;;;;5025934;28;20041;-53
2021/12/20 01:59:42;;;;;;;53.72;30.05;;;;;;;;;;5028056;28;20029;-49
2021/12/20 02:02:08;;;;;;;57.80;30.70;;;;;;;;;;5025028;28;20382;-54
2021/12/20 02:04:44;;;;;;;56.75;30.42;;;;;;;;;;5021344;28;20394;-50
2021/12/20 02:07:20;;;;;;;51.95;28.88;;;;;;;;;;5028039;28;20025;-52
2021/12/20 02:09:45;;;;;;;57.08;29.92;;;;;;;;;;5022928;28;20483;-47
2021/12/20 02:12:12;;;;;;;50.88;29.10;;;;;;;;;;5027583;28;20037;-53
2021/12/20 02:14:39;;;;;;;50.70;28.65;;;;;;;;;;5024498;28;20034;-54
2021/12/20 02:17:04;;;;;;;55.63;29.50;;;;;;;;;;5029938;28;20121;-46
2021/12/20 02:19:30;;;;;;;53.25;29.02;;;;;;;;;;5021976;28;20175;-51
2021/12/20 02:21:56;;;;;;;50.78;28.50;;;;;;;;;;5025991;28;20139;-53
2021/12/20 02:24:21;;;;;;;47.53;28.88;;;;;;;;;;5027359;28;20160;-54
2021/12/20 02:26:49;;;;;;;48.35;29.20;;;;;;;;;;5025903;28;20037;-51
2021/12/20 02:29:16;;;;;;;49.38;29.08;;;;;;;;;;5016975;28;20030;-50
2021/12/20 02:37:28;;;;;;;53.83;29.95;;;;;;;;;;5028727;28;20036;-53
2021/12/20 02:39:55;;;;;;;54.10;28.50;;;;;;;;;;5026009;28;20037;-54
2021/12/20 02:42:26;;;;;;;56.63;28.20;;;;;;;;;;5022020;28;20125;-50
2021/12/20 02:45:07;;;;;;;50.88;29.38;;;;;;;;;;5024373;28;20026;-54
2021/12/20 02:47:37;;;;;;;54.15;29.75;;;;;;;;;;5032216;28;20029;-52
2021/12/20 02:50:03;;;;;;;51.78;28.02;;;;;;;;;;5022788;28;20025;-53
2021/12/20 02:52:29;;;;;;;47.58;27.95;;;;;;;;;;5029217;28;20510;-53
2021/12/20 02:54:54;;;;;;;51.78;28.15;;;;;;;;;;5022326;28;20026;-54
2021/12/20 02:57:20;;;;;;;46.92;27.17;;;;;;;;;;5020449;28;20018;-47
2021/12/20 02:59:46;;;;;;;55.42;30.52;;;;;;;;;;5024711;28;20045;-46
2021/12/20 03:02:12;;;;;;;58.85;31.90;;;;;;;;;;5022091;28;20463;-46
2021/12/20 03:04:38;;;;;;;58.83;29.90;;;;;;;;;;5018187;28;20109;-45
2021/12/20 03:07:14;;;;;;;75.43;31.63;;;;;;;;;;5029939;28;20068;-46
2021/12/20 03:09:45;;;;;;;67.07;34.65;;;;;;;;;;5027903;28;20064;-47
2021/12/20 03:12:14;;;;;;;52.85;28.38;;;;;;;;;;5033168;28;20055;-46
2021/12/20 03:14:44;;;;;;;49.33;29.08;;;;;;;;;;5025163;28;20129;-46
2021/12/20 03:17:11;;;;;;;50.28;27.52;;;;;;;;;;5020700;28;20028;-46
2021/12/20 03:19:37;;;;;;;50.45;29.00;;;;;;;;;;5026283;28;20502;-47
2021/12/20 03:22:03;;;;;;;56.92;29.55;;;;;;;;;;5029107;28;20061;-49
2021/12/20 03:24:29;;;;;;;51.50;28.10;;;;;;;;;;5026077;28;20041;-45
2021/12/20 03:26:55;;;;;;;50.53;28.15;;;;;;;;;;5021672;28;20810;-49
2021/12/20 03:29:21;;;;;;;51.35;28.40;;;;;;;;;;5018525;28;20109;-46
2021/12/20 03:31:47;;;;;;;56.85;29.05;;;;;;;;;;5019546;28;20064;-46
2021/12/20 03:34:13;;;;;;;64.25;28.60;;;;;;;;;;5019519;28;20487;-55
2021/12/20 03:36:40;;;;;;;77.90;29.33;;;;;;;;;;5025126;28;20038;-50
2021/12/20 03:39:08;;;;;;;42.63;26.92;;;;;;;;;;5022245;28;20099;-51
2021/12/20 03:41:34;;;;;;;54.25;28.20;;;;;;;;;;5032494;28;20086;-51
2021/12/20 03:44:00;;;;;;;70.35;30.67;;;;;;;;;;5031044;28;20037;-54
2021/12/20 03:46:26;;;;;;;76.90;28.42;;;;;;;;;;5034081;28;20033;-52
2021/12/20 03:48:52;;;;;;;53.28;26.88;;;;;;;;;;5021726;28;20040;-51
2021/12/20 03:51:18;;;;;;;55.33;27.58;;;;;;;;;;5026664;28;20026;-47
2021/12/20 03:53:44;;;;;;;54.67;27.85;;;;;;;;;;5027313;28;20095;-50
2021/12/20 03:56:10;;;;;;;56.13;28.13;;;;;;;;;;5024954;28;20037;-49
2021/12/20 03:58:36;;;;;;;54.08;28.27;;;;;;;;;;5027663;28;20038;-47
2021/12/20 04:01:10;;;;;;;51.78;25.80;;;;;;;;;;5030588;28;20048;-47
2021/12/20 04:03:37;;;;;;;56.20;25.70;;;;;;;;;;5041704;28;20041;-47
2021/12/20 04:06:04;;;;;;;53.53;28.25;;;;;;;;;;5032928;28;20032;-51
2021/12/20 04:08:30;;;;;;;44.17;25.88;;;;;;;;;;5028099;28;20029;-50
2021/12/20 04:10:57;;;;;;;42.03;24.67;;;;;;;;;;5046388;28;20034;-46
2021/12/20 04:13:23;;;;;;;44.70;25.90;;;;;;;;;;5036724;28;20029;-48
2021/12/20 04:15:49;;;;;;;49.25;24.08;;;;;;;;;;5029439;28;20490;-48
2021/12/20 04:18:15;;;;;;;48.60;26.67;;;;;;;;;;5027467;28;20079;-49
2021/12/20 04:20:40;;;;;;;41.70;25.52;;;;;;;;;;5024888;28;20025;-51
2021/12/20 04:23:06;;;;;;;51.60;26.95;;;;;;;;;;5024141;28;20038;-46
2021/12/20 04:25:32;;;;;;;37.88;24.48;;;;;;;;;;5044329;28;20032;-46
2021/12/20 04:27:57;;;;;;;45.47;25.65;;;;;;;;;;5026084;28;20404;-51
2021/12/20 04:30:28;;;;;;;34.97;23.50;;;;;;;;;;5021895;28;20065;-49
2021/12/20 04:32:54;;;;;;;32.17;21.75;;;;;;;;;;5032474;28;20090;-53
2021/12/20 04:35:19;;;;;;;34.63;23.52;;;;;;;;;;5030236;28;20090;-48
2021/12/20 04:37:47;;;;;;;41.45;24.40;;;;;;;;;;5026554;28;20025;-46
2021/12/20 04:40:18;;;;;;;35.17;22.70;;;;;;;;;;5021451;28;20494;-51
2021/12/20 04:42:44;;;;;;;36.72;23.42;;;;;;;;;;5027658;28;20045;-48
2021/12/20 04:45:09;;;;;;;41.55;25.17;;;;;;;;;;5033903;28;20037;-45
2021/12/20 04:47:35;;;;;;;39.95;23.95;;;;;;;;;;5023005;28;20073;-54
2021/12/20 04:50:01;;;;;;;42.67;23.98;;;;;;;;;;5031555;28;20130;-53
2021/12/20 04:52:29;;;;;;;35.85;22.90;;;;;;;;;;5031190;28;20030;-47
2021/12/20 04:54:54;;;;;;;37.83;23.52;;;;;;;;;;5031412;28;20033;-47
2021/12/20 04:57:20;;;;;;;41.85;24.02;;;;;;;;;;5026301;28;20038;-47
2021/12/20 04:59:46;;;;;;;36.33;24.00;;;;;;;;;;5019480;28;20172;-47
2021/12/20 05:02:11;;;;;;;33.30;22.38;;;;;;;;;;5023152;28;20044;-46
2021/12/20 05:04:37;;;;;;;36.33;23.65;;;;;;;;;;5034071;28;20526;-45
2021/12/20 05:07:03;;;;;;;39.40;23.90;;;;;;;;;;5030492;28;20494;-50
2021/12/20 05:09:36;;;;;;;41.50;24.45;;;;;;;;;;5023778;28;20120;-46
2021/12/20 05:12:10;;;;;;;37.35;24.30;;;;;;;;;;5023150;28;20044;-46
2021/12/20 05:14:36;;;;;;;35.17;23.25;;;;;;;;;;5030368;28;20036;-49
2021/12/20 05:17:02;;;;;;;31.95;21.92;;;;;;;;;;5025388;28;20477;-46
2021/12/20 05:19:28;;;;;;;34.60;22.10;;;;;;;;;;5028502;28;20475;-47
2021/12/20 05:21:56;;;;;;;33.78;22.27;;;;;;;;;;5033131;28;20065;-49
2021/12/20 05:24:21;;;;;;;44.00;25.45;;;;;;;;;;5032337;28;20037;-46
2021/12/20 05:26:47;;;;;;;53.97;31.25;;;;;;;;;;5019830;28;20079;-47
2021/12/20 05:29:13;;;;;;;47.20;26.60;;;;;;;;;;5026691;28;20033;-48
2021/12/20 05:31:39;;;;;;;41.90;23.13;;;;;;;;;;5027307;28;20108;-47
2021/12/20 05:34:05;;;;;;;41.75;22.67;;;;;;;;;;5022483;28;20077;-48
2021/12/20 05:36:31;;;;;;;33.83;22.23;;;;;;;;;;5028785;28;20070;-46
2021/12/20 05:38:56;;;;;;;35.88;23.02;;;;;;;;;;5026106;28;20443;-47
2021/12/20 05:41:22;;;;;;;39.50;24.58;;;;;;;;;;5022839;28;20394;-46
2021/12/20 05:43:49;;;;;;;38.67;23.83;;;;;;;;;;5021730;28;20029;-49
2021/12/20 05:46:15;;;;;;;39.13;22.98;;;;;;;;;;5025461;28;20038;-46
2021/12/20 05:48:40;;;;;;;34.33;21.80;;;;;;;;;;5030860;28;20060;-46
2021/12/20 05:51:06;;;;;;;39.22;21.52;;;;;;;;;;5028663;28;20065;-46
2021/12/20 05:53:32;;;;;;;33.08;21.75;;;;;;;;;;5025903;28;20043;-46
2021/12/20 05:55:58;;;;;;;35.20;20.95;;;;;;;;;;5021950;28;20137;-47
2021/12/20 05:58:23;;;;;;;33.05;21.75;;;;;;;;;;5025299;28;20053;-51
2021/12/20 06:00:49;;;;;;;31.88;20.63;;;;;;;;;;5022262;28;20037;-51
2021/12/20 06:03:14;;;;;;;31.33;21.30;;;;;;;;;;5018431;28;20123;-50
2021/12/20 06:05:42;;;;;;;35.63;21.52;;;;;;;;;;5021142;28;20061;-46
2021/12/20 06:08:09;;;;;;;33.33;20.05;;;;;;;;;;5032004;28;20048;-48
2021/12/20 06:10:36;;;;;;;33.40;20.85;;;;;;;;;;5023067;28;20082;-52
2021/12/20 06:13:02;;;;;;;31.25;20.90;;;;;;;;;;5032623;28;20033;-48
2021/12/20 06:15:28;;;;;;;35.10;20.92;;;;;;;;;;5029046;28;20039;-47
2021/12/20 06:17:54;;;;;;;32.78;20.67;;;;;;;;;;5030659;28;20033;-47
2021/12/20 06:20:20;;;;;;;32.03;20.83;;;;;;;;;;5038789;28;20073;-46
2021/12/20 06:22:45;;;;;;;32.70;20.30;;;;;;;;;;5024175;28;20049;-46
2021/12/20 06:25:12;;;;;;;31.58;19.67;;;;;;;;;;5021519;28;20035;-49
2021/12/20 06:27:38;;;;;;;30.88;19.83;;;;;;;;;;5020928;28;20084;-46
2021/12/20 06:30:04;;;;;;;31.13;19.58;;;;;;;;;;5029974;28;20075;-48
2021/12/20 06:32:30;;;;;;;29.67;19.10;;;;;;;;;;5017004;28;20044;-53
2021/12/20 06:34:56;;;;;;;29.10;19.33;;;;;;;;;;5024034;28;20104;-47
2021/12/20 06:37:22;;;;;;;31.00;19.08;;;;;;;;;;5025347;28;20117;-46
2021/12/20 06:39:48;;;;;;;28.65;18.73;;;;;;;;;;5027545;28;20501;-49
2021/12/20 06:42:13;;;;;;;32.78;19.75;;;;;;;;;;5027217;28;20037;-53
2021/12/20 06:44:39;;;;;;;32.17;19.45;;;;;;;;;;5024484;28;20057;-46
2021/12/20 06:47:05;;;;;;;35.30;19.33;;;;;;;;;;5016614;28;20461;-48
2021/12/20 06:49:31;;;;;;;32.75;18.85;;;;;;;;;;5025113;28;20033;-47
2021/12/20 06:51:59;;;;;;;30.95;19.90;;;;;;;;;;5018644;28;20117;-51
2021/12/20 06:54:25;;;;;;;31.95;19.63;;;;;;;;;;5022686;28;20065;-50
2021/12/20 06:56:51;;;;;;;28.98;18.95;;;;;;;;;;5025837;28;20068;-49
2021/12/20 06:59:17;;;;;;;30.85;19.88;;;;;;;;;;5020779;28;20359;-46
2021/12/20 07:01:43;;;;;;;28.85;18.92;;;;;;;;;;5018695;28;20021;-50
2021/12/20 07:04:12;;;;;;;29.75;18.88;;;;;;;;;;5024567;28;20092;-51
2021/12/20 07:06:38;;;;;;;31.02;20.02;;;;;;;;;;5022056;28;20029;-49
2021/12/20 07:09:04;;;;;;;38.60;22.83;;;;;;;;;;5031848;28;20028;-49
2021/12/20 07:11:30;;;;;;;36.33;22.70;;;;;;;;;;5026654;28;20033;-49
2021/12/20 07:13:56;;;;;;;39.20;23.88;;;;;;;;;;5020524;28;20033;-52
2021/12/20 07:16:22;;;;;;;38.78;22.80;;;;;;;;;;5029098;28;20508;-54
2021/12/20 07:18:48;;;;;;;39.47;24.17;;;;;;;;;;5028004;28;20029;-55
2021/12/20 07:21:14;;;;;;;40.90;23.42;;;;;;;;;;5016577;28;20493;-48
2021/12/20 07:23:41;;;;;;;37.53;22.45;;;;;;;;;;5019347;28;20100;-51
2021/12/20 07:26:10;;;;;;;40.33;23.40;;;;;;;;;;5016624;28;20033;-51
2021/12/20 07:28:36;;;;;;;33.67;21.65;;;;;;;;;;5016328;28;20037;-52
2021/12/20 07:31:02;;;;;;;37.35;21.45;;;;;;;;;;5015870;28;20026;-47
2021/12/20 07:33:28;;;;;;;51.25;22.55;;;;;;;;;;5029795;28;20115;-46
2021/12/20 07:35:54;;;;;;;38.25;21.13;;;;;;;;;;5018633;28;20037;-49
2021/12/20 07:38:20;;;;;;;33.10;23.00;;;;;;;;;;5017767;28;20462;-49
2021/12/20 07:40:48;;;;;;;39.75;23.20;;;;;;;;;;5020045;28;20036;-47
2021/12/20 07:43:15;;;;;;;33.63;22.08;;;;;;;;;;5024701;28;20041;-49
2021/12/20 07:45:42;;;;;;;35.65;21.45;;;;;;;;;;5018327;28;20106;-46
2021/12/20 07:48:08;;;;;;;36.17;22.75;;;;;;;;;;5022405;28;20041;-53
2021/12/20 07:50:34;;;;;;;29.92;19.05;;;;;;;;;;5017809;28;20112;-49
2021/12/20 07:53:00;;;;;;;26.17;18.50;;;;;;;;;;5018426;28;20049;-50
2021/12/20 07:55:26;;;;;;;29.48;18.67;;;;;;;;;;5021023;28;20033;-46
2021/12/20 07:57:51;;;;;;;29.75;19.83;;;;;;;;;;5024514;28;20034;-48
2021/12/20 08:00:18;;;;;;;33.17;19.88;;;;;;;;;;5017141;28;20041;-49
2021/12/20 08:02:44;;;;;;;31.45;20.05;;;;;;;;;;5024608;28;20032;-47
2021/12/20 08:05:12;;;;;;;40.88;22.02;;;;;;;;;;5021944;28;20365;-46
2021/12/20 08:07:38;;;;;;;30.85;19.73;;;;;;;;;;5021727;28;20060;-48
2021/12/20 08:10:05;;;;;;;31.08;19.95;;;;;;;;;;5028848;28;20038;-53
2021/12/20 08:12:30;;;;;;;30.42;20.08;;;;;;;;;;5026884;28;20694;-51
2021/12/20 08:14:56;;;;;;;31.50;19.67;;;;;;;;;;5030672;28;20086;-47
2021/12/20 08:17:22;;;;;;;34.30;20.33;;;;;;;;;;5023529;28;20470;-51
2021/12/20 08:19:47;;;;;;;39.50;20.95;;;;;;;;;;5017209;28;20033;-51
2021/12/20 08:22:13;;;;;;;30.35;20.48;;;;;;;;;;5033091;28;20406;-50
2021/12/20 08:24:39;;;;;;;34.08;20.77;;;;;;;;;;5024894;28;20038;-47
2021/12/20 08:27:05;;;;;;;42.03;20.67;;;;;;;;;;5028991;28;20076;-47
2021/12/20 08:29:30;;;;;;;30.27;20.60;;;;;;;;;;5026268;28;20041;-51
2021/12/20 08:32:01;;;;;;;34.15;21.00;;;;;;;;;;5023648;28;20033;-54
2021/12/20 08:34:28;;;;;;;30.08;20.40;;;;;;;;;;5024426;28;20073;-47
2021/12/20 08:36:55;;;;;;;30.88;20.85;;;;;;;;;;5023761;28;20064;-52
2021/12/20 08:39:21;;;;;;;33.20;21.00;;;;;;;;;;5024619;28;20042;-48
2021/12/20 08:41:47;;;;;;;31.08;20.35;;;;;;;;;;5030564;28;20113;-52
2021/12/20 08:44:13;;;;;;;32.58;21.75;;;;;;;;;;5023168;28;20427;-52
2021/12/20 08:46:39;;;;;;;33.05;20.30;;;;;;;;;;5021168;28;20045;-51
2021/12/20 08:49:06;;;;;;;36.88;21.08;;;;;;;;;;5020785;28;20021;-51
2021/12/20 08:51:32;;;;;;;30.60;20.33;;;;;;;;;;5027782;28;20049;-49
2021/12/20 08:53:58;;;;;;;30.65;21.38;;;;;;;;;;5021761;28;20395;-52
2021/12/20 08:56:23;;;;;;;33.10;23.58;;;;;;;;;;5019283;28;20163;-54
2021/12/20 08:58:49;;;;;;;34.85;23.17;;;;;;;;;;5020858;28;20049;-52
2021/12/20 09:01:14;;;;;;;36.28;23.13;;;;;;;;;;5028810;28;20022;-48
2021/12/20 09:03:40;;;;;;;36.92;23.08;;;;;;;;;;5035898;28;20040;-46
2021/12/20 09:06:08;;;;;;;41.60;24.17;;;;;;;;;;5020327;28;20044;-52
2021/12/20 09:08:34;;;;;;;37.22;24.77;;;;;;;;;;5023535;28;20041;-54
2021/12/20 09:11:00;;;;;;;34.58;24.13;;;;;;;;;;5025078;28;20488;-52
2021/12/20 09:13:26;;;;;;;46.10;26.08;;;;;;;;;;5020239;28;20198;-52
2021/12/20 09:15:55;;;;;;;48.08;26.10;;;;;;;;;;5031955;28;20553;-52
2021/12/20 09:18:20;;;;;;;44.17;26.52;;;;;;;;;;5026278;28;20038;-52
2021/12/20 09:20:46;;;;;;;47.30;26.10;;;;;;;;;;5019223;28;20090;-52
2021/12/20 09:23:13;;;;;;;52.88;28.65;;;;;;;;;;5015821;28;20053;-47
2021/12/20 09:25:43;;;;;;;63.92;32.67;;;;;;;;;;5021577;28;20108;-52
2021/12/20 09:28:11;;;;;;;56.65;31.95;;;;;;;;;;5018952;28;20073;-52
2021/12/20 09:30:40;;;;;;;47.10;29.50;;;;;;;;;;5020129;28;20128;-51
2021/12/20 09:33:07;;;;;;;58.58;29.08;;;;;;;;;;5017974;28;20036;-53
2021/12/20 09:35:33;;;;;;;37.10;22.88;;;;;;;;;;5013836;28;20053;-53
2021/12/20 09:38:00;;;;;;;43.42;24.45;;;;;;;;;;5018607;28;20030;-50
2021/12/20 09:40:32;;;;;;;47.40;27.05;;;;;;;;;;5019698;28;20033;-49
2021/12/20 09:43:01;;;;;;;50.58;27.77;;;;;;;;;;5015498;28;20503;-52
2021/12/20 09:45:28;;;;;;;37.20;19.95;;;;;;;;;;5022722;28;20042;-50
2021/12/20 09:47:54;;;;;;;28.45;17.67;;;;;;;;;;5020834;28;20445;-49
2021/12/20 09:50:20;;;;;;;32.97;18.95;;;;;;;;;;5021148;28;20067;-48
2021/12/20 09:52:46;;;;;;;39.70;22.10;;;;;;;;;;5015327;28;20029;-51
2021/12/20 09:55:15;;;;;;;33.53;20.08;;;;;;;;;;5027272;28;20034;-52
2021/12/20 09:57:43;;;;;;;30.40;18.40;;;;;;;;;;5013560;28;20363;-51
2021/12/20 10:00:12;;;;;;;38.80;22.77;;;;;;;;;;5015080;28;20033;-49
2021/12/20 10:02:43;;;;;;;55.00;29.05;;;;;;;;;;5020314;28;20118;-55
2021/12/20 10:05:12;;;;;;;48.88;25.45;;;;;;;;;;5017005;28;20114;-50
2021/12/20 10:07:39;;;;;;;57.03;29.48;;;;;;;;;;5021969;28;20135;-48
2021/12/20 10:10:07;;;;;;;57.28;28.55;;;;;;;;;;5015417;28;20494;-49
2021/12/20 10:12:34;;;;;;;43.80;24.75;;;;;;;;;;5019231;28;20503;-54
2021/12/20 10:15:08;;;;;;;55.20;29.13;;;;;;;;;;5026225;28;20108;-54
2021/12/20 10:17:51;;;;;;;62.63;32.60;;;;;;;;;;5014583;28;20044;-48
2021/12/20 10:20:20;;;;;;;36.08;19.92;;;;;;;;;;5015191;28;20053;-52
2021/12/20 10:22:46;;;;;;;32.30;18.27;;;;;;;;;;5014071;28;20481;-54
2021/12/20 10:25:26;;;;;;;38.58;22.90;;;;;;;;;;5021232;28;20084;-52
2021/12/20 10:27:53;;;;;;;34.53;19.50;;;;;;;;;;5017028;28;20518;-54
2021/12/20 10:30:27;;;;;;;33.00;18.73;;;;;;;;;;5020534;28;20066;-52
2021/12/20 10:32:54;;;;;;;26.27;16.52;;;;;;;;;;5025832;28;20696;-53
2021/12/20 10:35:26;;;;;;;29.75;16.67;;;;;;;;;;5024952;28;20119;-53
2021/12/20 10:37:59;;;;;;;36.13;16.63;;;;;;;;;;5008482;28;20049;-49
2021/12/20 10:40:25;;;;;;;25.50;15.82;;;;;;;;;;5018598;28;20128;-48
2021/12/20 10:42:53;;;;;;;27.13;16.73;;;;;;;;;;5024769;28;20033;-48
2021/12/20 10:45:20;;;;;;;28.10;16.08;;;;;;;;;;5019762;28;20500;-48
2021/12/20 10:47:48;;;;;;;27.52;16.95;;;;;;;;;;5017914;28;20026;-49
2021/12/20 10:50:27;;;;;;;31.30;16.50;;;;;;;;;;5018748;28;20029;-47
2021/12/20 10:53:10;;;;;;;29.20;16.25;;;;;;;;;;5011676;28;20043;-52
2021/12/20 10:55:45;;;;;;;24.88;15.65;;;;;;;;;;5022290;28;20045;-53
2021/12/20 10:58:28;;;;;;;26.20;15.55;;;;;;;;;;5028039;28;20021;-51
2021/12/20 11:04:25;;;;;;;25.45;15.15;;;;;;;;;;5024712;28;20075;-49
2021/12/20 11:09:38;;;;;;;31.05;16.55;;;;;;;;;;5027241;28;20044;-46
2021/12/20 11:12:16;;;;;;;29.75;16.63;;;;;;;;;;5027366;28;20460;-51
2021/12/20 11:14:45;;;;;;;28.15;17.02;;;;;;;;;;5023957;28;20041;-53
2021/12/20 11:17:14;;;;;;;30.17;17.20;;;;;;;;;;5027240;28;20033;-51
2021/12/20 11:19:44;;;;;;;29.58;17.10;;;;;;;;;;5016052;28;20536;-52
2021/12/20 11:22:24;;;;;;;30.15;16.63;;;;;;;;;;5017891;28;20088;-55
2021/12/20 11:25:07;;;;;;;26.67;16.77;;;;;;;;;;5012132;28;20095;-52
2021/12/20 11:27:40;;;;;;;25.10;15.98;;;;;;;;;;5020140;28;20642;-47
2021/12/20 11:30:16;;;;;;;26.65;15.65;;;;;;;;;;5024165;28;20502;-47
2021/12/20 11:32:45;;;;;;;28.10;17.55;;;;;;;;;;5012798;28;20041;-49
2021/12/20 11:35:11;;;;;;;28.17;17.10;;;;;;;;;;5016388;28;20107;-47
2021/12/20 11:37:37;;;;;;;30.58;17.33;;;;;;;;;;5013195;28;20186;-51
2021/12/20 11:40:06;;;;;;;31.85;17.00;;;;;;;;;;5023968;28;20545;-49
2021/12/20 11:42:33;;;;;;;27.30;16.50;;;;;;;;;;5010791;28;20041;-46
2021/12/20 11:45:01;;;;;;;26.98;16.52;;;;;;;;;;5014684;28;20061;-51
2021/12/20 11:47:33;;;;;;;26.55;16.73;;;;;;;;;;5022031;28;20069;-46
2021/12/20 11:50:07;;;;;;;35.10;17.15;;;;;;;;;;5023629;28;20053;-50
2021/12/20 11:52:35;;;;;;;30.80;17.27;;;;;;;;;;5015528;28;20394;-49
2021/12/20 11:55:17;;;;;;;27.35;17.83;;;;;;;;;;5022563;28;20030;-47
2021/12/20 11:57:51;;;;;;;29.08;17.15;;;;;;;;;;5010992;28;20282;-48
2021/12/20 12:00:19;;;;;;;33.17;18.15;;;;;;;;;;5016185;28;20034;-47
2021/12/20 12:02:46;;;;;;;28.27;17.45;;;;;;;;;;5019099;28;20104;-49
2021/12/20 12:05:28;;;;;;;28.58;16.13;;;;;;;;;;5020588;28;20042;-47
2021/12/20 12:07:53;;;;;;;31.25;17.20;;;;;;;;;;5021080;28;20473;-46
2021/12/20 12:10:28;;;;;;;29.92;18.17;;;;;;;;;;5019751;28;20116;-50
2021/12/20 12:13:00;;;;;;;25.13;16.50;;;;;;;;;;5020773;28;20305;-48
2021/12/20 12:15:44;;;;;;;27.13;16.40;;;;;;;;;;5028137;28;20044;-46
2021/12/20 12:18:10;;;;;;;29.27;18.08;;;;;;;;;;5027561;28;20615;-52
2021/12/20 12:20:37;;;;;;;26.38;16.48;;;;;;;;;;5028019;28;20510;-46
2021/12/20 12:23:19;;;;;;;28.20;17.60;;;;;;;;;;5020779;28;20042;-48
2021/12/20 12:25:57;;;;;;;30.27;17.83;;;;;;;;;;5025643;28;20107;-47
2021/12/20 12:28:44;;;;;;;26.50;17.15;;;;;;;;;;5022773;28;20038;-46
2021/12/20 12:31:10;;;;;;;26.98;17.25;;;;;;;;;;5026667;28;20054;-46
2021/12/20 12:33:39;;;;;;;27.30;16.63;;;;;;;;;;5028540;28;20449;-47
2021/12/20 12:36:07;;;;;;;26.10;16.05;;;;;;;;;;5019992;28;20378;-46
2021/12/20 12:38:55;;;;;;;27.83;17.00;;;;;;;;;;5029614;28;20095;-48
2021/12/20 12:41:26;;;;;;;29.63;15.07;;;;;;;;;;5027071;28;20053;-47
2021/12/20 12:44:04;;;;;;;28.20;16.73;;;;;;;;;;5022710;28;20037;-47
2021/12/20 12:46:35;;;;;;;24.65;14.85;;;;;;;;;;5027053;28;20061;-51
2021/12/20 12:49:21;;;;;;;27.92;15.10;;;;;;;;;;5025097;28;20030;-48
2021/12/20 12:51:55;;;;;;;25.00;14.95;;;;;;;;;;5045354;28;20057;-48
2021/12/20 12:54:32;;;;;;;22.58;14.40;;;;;;;;;;5026642;28;20479;-50
2021/12/20 12:57:14;;;;;;;27.23;15.25;;;;;;;;;;5028484;28;20025;-48
2021/12/20 12:59:49;;;;;;;27.55;16.02;;;;;;;;;;5026935;28;20489;-48
2021/12/20 13:02:23;;;;;;;25.38;14.93;;;;;;;;;;5022730;28;20164;-47
2021/12/20 13:04:52;;;;;;;24.23;15.48;;;;;;;;;;5020191;28;20026;-49
2021/12/20 13:07:23;;;;;;;26.33;15.82;;;;;;;;;;5023667;28;20022;-46
2021/12/20 13:09:50;;;;;;;22.73;15.95;;;;;;;;;;5025399;28;20029;-46
2021/12/20 13:15:14;;;;;;;28.15;16.35;;;;;;;;;;5017492;28;20030;-48
2021/12/20 13:17:46;;;;;;;27.23;16.40;;;;;;;;;;5025143;28;20041;-51
2021/12/20 13:20:25;;;;;;;26.27;16.42;;;;;;;;;;5023983;28;20057;-48
2021/12/20 13:22:57;;;;;;;31.40;16.58;;;;;;;;;;5025229;28;20044;-50
2021/12/20 13:25:38;;;;;;;26.08;15.38;;;;;;;;;;5018343;28;20133;-47
2021/12/20 13:28:06;;;;;;;26.52;16.85;;;;;;;;;;5023544;28;20092;-47
2021/12/20 13:30:37;;;;;;;24.33;15.77;;;;;;;;;;5036392;28;20033;-49
2021/12/20 13:33:03;;;;;;;27.70;16.88;;;;;;;;;;5029881;28;20053;-47
2021/12/20 13:35:29;;;;;;;27.10;16.08;;;;;;;;;;5023943;28;20057;-50
2021/12/20 13:38:13;;;;;;;23.92;14.68;;;;;;;;;;5018891;28;20063;-49
2021/12/20 13:41:11;;;;;;;28.98;16.55;;;;;;;;;;5023949;28;20140;-48
2021/12/20 13:43:45;;;;;;;27.02;16.20;;;;;;;;;;5016167;28;20799;-48
2021/12/20 13:46:17;;;;;;;31.60;16.25;;;;;;;;;;5024307;28;20036;-48
2021/12/20 13:49:35;;;;;;;28.50;17.08;;;;;;;;;;5022787;28;20018;-50
2021/12/20 13:52:09;;;;;;;29.23;16.60;;;;;;;;;;5016233;28;20552;-47
2021/12/20 13:54:39;;;;;;;29.38;16.40;;;;;;;;;;5033317;28;20478;-47
2021/12/20 13:57:11;;;;;;;30.17;16.55;;;;;;;;;;5022472;28;20045;-48
2021/12/20 13:59:40;;;;;;;24.50;16.17;;;;;;;;;;5020185;28;20057;-48
2021/12/20 14:02:12;;;;;;;25.73;16.27;;;;;;;;;;4997758;28;20086;-46
2021/12/20 14:04:41;;;;;;;27.30;14.50;;;;;;;;;;5014873;28;20040;-46
2021/12/20 14:07:28;;;;;;;26.45;16.63;;;;;;;;;;5007492;28;20830;-52
2021/12/20 14:10:05;;;;;;;24.92;15.02;;;;;;;;;;5016351;28;20717;-49
2021/12/20 14:12:52;;;;;;;26.55;17.20;;;;;;;;;;5012465;28;20635;-47
2021/12/20 14:15:25;;;;;;;25.88;15.48;;;;;;;;;;5010231;28;20045;-49
2021/12/20 14:17:55;;;;;;;21.05;15.00;;;;;;;;;;5023702;28;20029;-47
2021/12/20 14:20:42;;;;;;;23.23;14.75;;;;;;;;;;5010729;28;20034;-47
2021/12/20 14:23:22;;;;;;;26.60;16.38;;;;;;;;;;5014044;28;20050;-48
2021/12/20 14:25:51;;;;;;;28.27;15.82;;;;;;;;;;5017296;28;20040;-47
2021/12/20 14:28:25;;;;;;;21.60;14.48;;;;;;;;;;5018461;28;20049;-51
2021/12/20 14:31:06;;;;;;;28.58;16.67;;;;;;;;;;5019653;28;20565;-47
2021/12/20 14:33:34;;;;;;;27.23;15.98;;;;;;;;;;5022231;28;20483;-51
2021/12/20 14:36:10;;;;;;;26.40;15.65;;;;;;;;;;5029647;28;20056;-49
2021/12/20 14:38:47;;;;;;;28.27;16.13;;;;;;;;;;5022741;28;20045;-52
2021/12/20 14:41:41;;;;;;;25.70;16.17;;;;;;;;;;5015248;28;20033;-48
2021/12/20 14:44:20;;;;;;;71.07;36.50;;;;;;;;;;5017051;28;20443;-51